sensor_id;sensor_type;location;lat;lon;timestamp;temperature;humidity
15997;DHT22;8103;51.340;12.326;2022-12-24T00:01:05;10.10;99.90
15997;DHT22;8103;51.340;12.326;2022-12-24T00:03:33;10.10;99.90
15997;DHT22;8103;51.340;12.326;2022-12-24T00:06:17;10.10;99.90
15997;DHT22;8103;51.340;12.326;2022-12-24T00:08:46;10.20;99.90
15997;DHT22;8103;51.340;12.326;2022-12-24T00:11:13;10.20;99.90
15997;DHT22;8103;51.340;12.326;2022-12-24T00:13:40;10.20;99.90
15997;DHT22;8103;51.340;12.326;2022-12-24T00:16:06;10.30;99.90
15997;DHT22;8103;51.340;12.326;2022-12-24T00:18:33;10.30;99.90
15997;DHT22;8103;51.340;12.326;2022-12-24T00:21:05;10.30;99.90
15997;DHT22;8103;51.340;12.326;2022-12-24T00:23:32;10.30;99.90
15997;DHT22;8103;51.340;12.326;2022-12-24T00:25:59;10.30;99.90
15997;DHT22;8103;51.340;12.326;2022-12-24T00:28:26;10.20;99.90
15997;DHT22;8103;51.340;12.326;2022-12-24T00:30:53;10.20;99.90
15997;DHT22;8103;51.340;12.326;2022-12-24T00:33:20;10.10;99.90
15997;DHT22;8103;51.340;12.326;2022-12-24T00:35:51;10.00;99.90
15997;DHT22;8103;51.340;12.326;2022-12-24T00:38:18;10.00;99.90
15997;DHT22;8103;51.340;12.326;2022-12-24T00:40:45;10.00;99.90
15997;DHT22;8103;51.340;12.326;2022-12-24T00:43:12;10.00;99.90
15997;DHT22;8103;51.340;12.326;2022-12-24T00:45:39;10.00;99.90
15997;DHT22;8103;51.340;12.326;2022-12-24T00:48:06;10.00;99.90
15997;DHT22;8103;51.340;12.326;2022-12-24T00:50:32;10.10;99.90
15997;DHT22;8103;51.340;12.326;2022-12-24T00:52:59;10.10;99.90
15997;DHT22;8103;51.340;12.326;2022-12-24T00:55:26;10.10;99.90
15997;DHT22;8103;51.340;12.326;2022-12-24T00:57:53;10.00;99.90
15997;DHT22;8103;51.340;12.326;2022-12-24T01:00:20;10.00;99.90
15997;DHT22;8103;51.340;12.326;2022-12-24T01:02:47;10.00;99.90
15997;DHT22;8103;51.340;12.326;2022-12-24T01:05:14;10.10;99.90
15997;DHT22;8103;51.340;12.326;2022-12-24T01:07:42;10.10;99.90
15997;DHT22;8103;51.340;12.326;2022-12-24T01:10:12;10.10;99.90
15997;DHT22;8103;51.340;12.326;2022-12-24T01:12:41;10.20;99.90
15997;DHT22;8103;51.340;12.326;2022-12-24T01:15:10;10.20;99.90
15997;DHT22;8103;51.340;12.326;2022-12-24T01:17:39;10.20;99.90
15997;DHT22;8103;51.340;12.326;2022-12-24T01:20:10;10.30;99.90
15997;DHT22;8103;51.340;12.326;2022-12-24T01:22:39;10.30;99.90
15997;DHT22;8103;51.340;12.326;2022-12-24T01:25:07;10.30;99.90
15997;DHT22;8103;51.340;12.326;2022-12-24T01:27:34;10.30;99.90
15997;DHT22;8103;51.340;12.326;2022-12-24T01:30:00;10.30;99.90
15997;DHT22;8103;51.340;12.326;2022-12-24T01:32:27;10.30;99.90
15997;DHT22;8103;51.340;12.326;2022-12-24T01:34:54;10.30;99.90
15997;DHT22;8103;51.340;12.326;2022-12-24T01:37:21;10.40;99.90
15997;DHT22;8103;51.340;12.326;2022-12-24T01:39:48;10.30;99.90
15997;DHT22;8103;51.340;12.326;2022-12-24T01:42:19;10.30;99.90
15997;DHT22;8103;51.340;12.326;2022-12-24T01:45:55;10.30;99.90
15997;DHT22;8103;51.340;12.326;2022-12-24T01:53:56;10.30;99.90
15997;DHT22;8103;51.340;12.326;2022-12-24T01:56:26;10.30;99.90
15997;DHT22;8103;51.340;12.326;2022-12-24T01:58:59;10.30;99.90
15997;DHT22;8103;51.340;12.326;2022-12-24T02:01:31;10.30;99.90
15997;DHT22;8103;51.340;12.326;2022-12-24T02:04:01;10.40;99.90
15997;DHT22;8103;51.340;12.326;2022-12-24T02:06:34;10.40;99.90
15997;DHT22;8103;51.340;12.326;2022-12-24T02:09:01;10.30;99.90
15997;DHT22;8103;51.340;12.326;2022-12-24T02:11:29;10.30;99.90
15997;DHT22;8103;51.340;12.326;2022-12-24T02:13:58;10.30;99.90
15997;DHT22;8103;51.340;12.326;2022-12-24T02:16:45;10.30;99.90
15997;DHT22;8103;51.340;12.326;2022-12-24T02:26:13;10.30;99.90
15997;DHT22;8103;51.340;12.326;2022-12-24T02:32:01;10.40;99.90
15997;DHT22;8103;51.340;12.326;2022-12-24T02:34:39;10.40;99.90
15997;DHT22;8103;51.340;12.326;2022-12-24T02:37:16;10.50;99.90
15997;DHT22;8103;51.340;12.326;2022-12-24T02:39:58;10.50;99.90
15997;DHT22;8103;51.340;12.326;2022-12-24T02:42:40;10.50;99.90
15997;DHT22;8103;51.340;12.326;2022-12-24T02:45:13;10.50;99.90
15997;DHT22;8103;51.340;12.326;2022-12-24T02:47:43;10.50;99.90
15997;DHT22;8103;51.340;12.326;2022-12-24T02:50:14;10.50;99.90
15997;DHT22;8103;51.340;12.326;2022-12-24T02:52:44;10.50;99.90
15997;DHT22;8103;51.340;12.326;2022-12-24T02:55:31;10.50;99.90
15997;DHT22;8103;51.340;12.326;2022-12-24T02:58:33;10.50;99.90
15997;DHT22;8103;51.340;12.326;2022-12-24T03:01:21;10.50;99.90
15997;DHT22;8103;51.340;12.326;2022-12-24T03:04:35;10.50;99.90
15997;DHT22;8103;51.340;12.326;2022-12-24T03:07:16;10.50;99.90
15997;DHT22;8103;51.340;12.326;2022-12-24T03:09:50;10.50;99.90
15997;DHT22;8103;51.340;12.326;2022-12-24T03:12:33;10.50;99.90
15997;DHT22;8103;51.340;12.326;2022-12-24T03:15:07;10.50;99.90
15997;DHT22;8103;51.340;12.326;2022-12-24T03:17:37;10.50;99.90
15997;DHT22;8103;51.340;12.326;2022-12-24T03:20:09;10.50;99.90
15997;DHT22;8103;51.340;12.326;2022-12-24T03:22:37;10.50;99.90
15997;DHT22;8103;51.340;12.326;2022-12-24T03:25:05;10.50;99.90
15997;DHT22;8103;51.340;12.326;2022-12-24T03:27:33;10.50;99.90
15997;DHT22;8103;51.340;12.326;2022-12-24T03:30:02;10.50;99.90
15997;DHT22;8103;51.340;12.326;2022-12-24T03:32:31;10.50;99.90
15997;DHT22;8103;51.340;12.326;2022-12-24T03:34:58;10.50;99.90
15997;DHT22;8103;51.340;12.326;2022-12-24T03:41:32;10.50;99.90
15997;DHT22;8103;51.340;12.326;2022-12-24T03:43:59;10.50;99.90
15997;DHT22;8103;51.340;12.326;2022-12-24T03:46:26;10.50;99.90
15997;DHT22;8103;51.340;12.326;2022-12-24T03:48:53;10.50;99.90
15997;DHT22;8103;51.340;12.326;2022-12-24T03:51:22;10.50;99.90
15997;DHT22;8103;51.340;12.326;2022-12-24T03:53:54;10.50;99.90
15997;DHT22;8103;51.340;12.326;2022-12-24T03:56:22;10.50;99.90
15997;DHT22;8103;51.340;12.326;2022-12-24T03:58:50;10.50;99.90
15997;DHT22;8103;51.340;12.326;2022-12-24T04:01:17;10.50;99.90
15997;DHT22;8103;51.340;12.326;2022-12-24T04:03:44;10.50;99.90
15997;DHT22;8103;51.340;12.326;2022-12-24T04:06:14;10.50;99.90
15997;DHT22;8103;51.340;12.326;2022-12-24T04:08:43;10.50;99.90
15997;DHT22;8103;51.340;12.326;2022-12-24T04:11:12;10.50;99.90
15997;DHT22;8103;51.340;12.326;2022-12-24T04:13:40;10.50;99.90
15997;DHT22;8103;51.340;12.326;2022-12-24T04:16:10;10.50;99.90
15997;DHT22;8103;51.340;12.326;2022-12-24T04:18:39;10.40;99.90
15997;DHT22;8103;51.340;12.326;2022-12-24T04:21:07;10.40;99.90
15997;DHT22;8103;51.340;12.326;2022-12-24T04:23:36;10.40;99.90
15997;DHT22;8103;51.340;12.326;2022-12-24T04:26:06;10.50;99.90
15997;DHT22;8103;51.340;12.326;2022-12-24T04:28:36;10.50;99.90
15997;DHT22;8103;51.340;12.326;2022-12-24T04:31:07;10.50;99.90
15997;DHT22;8103;51.340;12.326;2022-12-24T04:33:37;10.50;99.90
15997;DHT22;8103;51.340;12.326;2022-12-24T04:36:05;10.50;99.90
15997;DHT22;8103;51.340;12.326;2022-12-24T04:38:33;10.50;99.90
15997;DHT22;8103;51.340;12.326;2022-12-24T04:41:13;10.50;99.90
15997;DHT22;8103;51.340;12.326;2022-12-24T04:43:49;10.50;99.90
15997;DHT22;8103;51.340;12.326;2022-12-24T04:46:19;10.50;99.90
15997;DHT22;8103;51.340;12.326;2022-12-24T04:48:50;10.50;99.90
15997;DHT22;8103;51.340;12.326;2022-12-24T04:51:19;10.50;99.90
15997;DHT22;8103;51.340;12.326;2022-12-24T04:53:46;10.50;99.90
15997;DHT22;8103;51.340;12.326;2022-12-24T04:56:19;10.50;99.90
15997;DHT22;8103;51.340;12.326;2022-12-24T04:58:48;10.50;99.90
15997;DHT22;8103;51.340;12.326;2022-12-24T05:01:24;10.50;99.90
15997;DHT22;8103;51.340;12.326;2022-12-24T05:03:55;10.50;99.90
15997;DHT22;8103;51.340;12.326;2022-12-24T05:06:24;10.50;99.90
15997;DHT22;8103;51.340;12.326;2022-12-24T05:13:00;10.50;99.90
15997;DHT22;8103;51.340;12.326;2022-12-24T05:15:27;10.50;99.90
15997;DHT22;8103;51.340;12.326;2022-12-24T05:17:54;10.50;99.90
15997;DHT22;8103;51.340;12.326;2022-12-24T05:20:21;10.50;99.90
15997;DHT22;8103;51.340;12.326;2022-12-24T05:22:47;10.40;99.90
15997;DHT22;8103;51.340;12.326;2022-12-24T05:25:36;10.40;99.90
15997;DHT22;8103;51.340;12.326;2022-12-24T05:28:23;10.30;99.90
15997;DHT22;8103;51.340;12.326;2022-12-24T05:30:50;10.20;99.90
15997;DHT22;8103;51.340;12.326;2022-12-24T05:33:17;10.20;99.90
15997;DHT22;8103;51.340;12.326;2022-12-24T05:35:44;10.10;99.90
15997;DHT22;8103;51.340;12.326;2022-12-24T05:38:11;10.00;99.90
15997;DHT22;8103;51.340;12.326;2022-12-24T05:40:37;9.90;99.90
15997;DHT22;8103;51.340;12.326;2022-12-24T05:47:11;9.80;99.90
15997;DHT22;8103;51.340;12.326;2022-12-24T05:49:37;9.80;99.90
15997;DHT22;8103;51.340;12.326;2022-12-24T05:52:04;9.70;99.90
15997;DHT22;8103;51.340;12.326;2022-12-24T05:54:31;9.70;99.90
15997;DHT22;8103;51.340;12.326;2022-12-24T05:56:58;9.70;99.90
15997;DHT22;8103;51.340;12.326;2022-12-24T05:59:25;9.60;99.90
15997;DHT22;8103;51.340;12.326;2022-12-24T06:01:51;9.50;99.90
15997;DHT22;8103;51.340;12.326;2022-12-24T06:04:18;9.50;99.90
15997;DHT22;8103;51.340;12.326;2022-12-24T06:06:52;9.50;99.90
15997;DHT22;8103;51.340;12.326;2022-12-24T06:09:18;9.50;99.90
15997;DHT22;8103;51.340;12.326;2022-12-24T06:11:45;9.50;99.90
15997;DHT22;8103;51.340;12.326;2022-12-24T06:14:12;9.50;99.90
15997;DHT22;8103;51.340;12.326;2022-12-24T06:16:38;9.50;99.90
15997;DHT22;8103;51.340;12.326;2022-12-24T06:19:05;9.50;99.90
15997;DHT22;8103;51.340;12.326;2022-12-24T06:21:32;9.50;99.90
15997;DHT22;8103;51.340;12.326;2022-12-24T06:23:59;9.50;99.90
15997;DHT22;8103;51.340;12.326;2022-12-24T06:26:26;9.50;99.90
15997;DHT22;8103;51.340;12.326;2022-12-24T06:32:58;9.40;99.90
15997;DHT22;8103;51.340;12.326;2022-12-24T06:35:25;9.40;99.90
15997;DHT22;8103;51.340;12.326;2022-12-24T06:41:59;9.40;99.90
15997;DHT22;8103;51.340;12.326;2022-12-24T06:44:25;9.40;99.90
15997;DHT22;8103;51.340;12.326;2022-12-24T06:46:52;9.40;99.90
15997;DHT22;8103;51.340;12.326;2022-12-24T06:49:19;9.50;99.90
15997;DHT22;8103;51.340;12.326;2022-12-24T06:51:46;9.40;99.90
15997;DHT22;8103;51.340;12.326;2022-12-24T06:54:12;9.40;99.90
15997;DHT22;8103;51.340;12.326;2022-12-24T06:56:39;9.40;99.90
15997;DHT22;8103;51.340;12.326;2022-12-24T06:59:06;9.40;99.90
15997;DHT22;8103;51.340;12.326;2022-12-24T07:01:33;9.50;99.90
15997;DHT22;8103;51.340;12.326;2022-12-24T07:04:00;9.50;99.90
15997;DHT22;8103;51.340;12.326;2022-12-24T07:06:28;9.50;99.90
15997;DHT22;8103;51.340;12.326;2022-12-24T07:08:56;9.50;99.90
15997;DHT22;8103;51.340;12.326;2022-12-24T07:11:24;9.50;99.90
15997;DHT22;8103;51.340;12.326;2022-12-24T07:13:51;9.40;99.90
15997;DHT22;8103;51.340;12.326;2022-12-24T07:16:18;9.40;99.90
15997;DHT22;8103;51.340;12.326;2022-12-24T07:18:45;9.30;99.90
15997;DHT22;8103;51.340;12.326;2022-12-24T07:21:12;9.30;99.90
15997;DHT22;8103;51.340;12.326;2022-12-24T07:23:39;9.20;99.90
15997;DHT22;8103;51.340;12.326;2022-12-24T07:26:06;9.20;99.90
15997;DHT22;8103;51.340;12.326;2022-12-24T07:28:33;9.10;99.90
15997;DHT22;8103;51.340;12.326;2022-12-24T07:31:00;9.10;99.90
15997;DHT22;8103;51.340;12.326;2022-12-24T07:33:27;9.00;99.90
15997;DHT22;8103;51.340;12.326;2022-12-24T07:36:06;9.00;99.90
15997;DHT22;8103;51.340;12.326;2022-12-24T07:38:34;9.00;99.90
15997;DHT22;8103;51.340;12.326;2022-12-24T07:41:01;8.90;99.90
15997;DHT22;8103;51.340;12.326;2022-12-24T07:43:28;8.90;99.90
15997;DHT22;8103;51.340;12.326;2022-12-24T07:45:56;8.90;99.90
15997;DHT22;8103;51.340;12.326;2022-12-24T07:48:28;8.80;99.90
15997;DHT22;8103;51.340;12.326;2022-12-24T07:50:56;8.80;99.90
15997;DHT22;8103;51.340;12.326;2022-12-24T07:53:24;8.80;99.90
15997;DHT22;8103;51.340;12.326;2022-12-24T07:55:53;8.90;99.90
15997;DHT22;8103;51.340;12.326;2022-12-24T07:58:20;8.90;99.90
15997;DHT22;8103;51.340;12.326;2022-12-24T08:00:48;8.90;99.90
15997;DHT22;8103;51.340;12.326;2022-12-24T08:03:16;8.90;99.90
15997;DHT22;8103;51.340;12.326;2022-12-24T08:05:45;8.90;99.90
15997;DHT22;8103;51.340;12.326;2022-12-24T08:08:13;8.90;99.90
15997;DHT22;8103;51.340;12.326;2022-12-24T08:10:41;8.90;99.90
15997;DHT22;8103;51.340;12.326;2022-12-24T08:13:09;8.90;99.90
15997;DHT22;8103;51.340;12.326;2022-12-24T08:15:36;8.90;99.90
15997;DHT22;8103;51.340;12.326;2022-12-24T08:18:03;9.00;99.90
15997;DHT22;8103;51.340;12.326;2022-12-24T08:20:30;9.00;99.90
15997;DHT22;8103;51.340;12.326;2022-12-24T08:22:57;9.00;99.90
15997;DHT22;8103;51.340;12.326;2022-12-24T08:25:24;9.10;99.90
15997;DHT22;8103;51.340;12.326;2022-12-24T08:27:51;9.20;99.90
15997;DHT22;8103;51.340;12.326;2022-12-24T08:30:18;9.30;99.90
15997;DHT22;8103;51.340;12.326;2022-12-24T08:32:47;9.20;99.90
15997;DHT22;8103;51.340;12.326;2022-12-24T08:35:14;9.30;99.90
15997;DHT22;8103;51.340;12.326;2022-12-24T08:37:41;9.30;99.90
15997;DHT22;8103;51.340;12.326;2022-12-24T08:40:09;9.40;99.90
15997;DHT22;8103;51.340;12.326;2022-12-24T08:42:36;9.70;99.90
15997;DHT22;8103;51.340;12.326;2022-12-24T08:45:03;10.00;99.90
15997;DHT22;8103;51.340;12.326;2022-12-24T08:47:30;10.30;99.90
15997;DHT22;8103;51.340;12.326;2022-12-24T08:49:57;10.50;99.90
15997;DHT22;8103;51.340;12.326;2022-12-24T08:52:23;10.80;99.90
15997;DHT22;8103;51.340;12.326;2022-12-24T08:54:50;11.00;99.90
15997;DHT22;8103;51.340;12.326;2022-12-24T08:57:17;11.40;99.90
15997;DHT22;8103;51.340;12.326;2022-12-24T08:59:45;11.70;99.90
15997;DHT22;8103;51.340;12.326;2022-12-24T09:02:12;12.00;99.90
15997;DHT22;8103;51.340;12.326;2022-12-24T09:04:39;12.20;99.90
15997;DHT22;8103;51.340;12.326;2022-12-24T09:07:07;12.60;99.90
15997;DHT22;8103;51.340;12.326;2022-12-24T09:09:35;13.00;99.90
15997;DHT22;8103;51.340;12.326;2022-12-24T09:12:06;13.30;99.60
15997;DHT22;8103;51.340;12.326;2022-12-24T09:14:33;13.60;98.90
15997;DHT22;8103;51.340;12.326;2022-12-24T09:17:00;13.80;98.60
15997;DHT22;8103;51.340;12.326;2022-12-24T09:19:27;14.00;97.70
15997;DHT22;8103;51.340;12.326;2022-12-24T09:21:56;13.80;97.70
15997;DHT22;8103;51.340;12.326;2022-12-24T09:24:23;13.50;97.70
15997;DHT22;8103;51.340;12.326;2022-12-24T09:26:50;13.00;98.70
15997;DHT22;8103;51.340;12.326;2022-12-24T09:29:23;12.30;99.90
15997;DHT22;8103;51.340;12.326;2022-12-24T09:31:49;11.80;99.90
15997;DHT22;8103;51.340;12.326;2022-12-24T09:34:16;11.40;99.90
15997;DHT22;8103;51.340;12.326;2022-12-24T09:36:43;11.10;99.90
15997;DHT22;8103;51.340;12.326;2022-12-24T09:39:12;10.90;99.90
15997;DHT22;8103;51.340;12.326;2022-12-24T09:47:31;10.60;99.90
15997;DHT22;8103;51.340;12.326;2022-12-24T09:54:21;10.70;99.90
15997;DHT22;8103;51.340;12.326;2022-12-24T09:56:27;10.70;99.90
15997;DHT22;8103;51.340;12.326;2022-12-24T09:59:01;10.80;99.90
15997;DHT22;8103;51.340;12.326;2022-12-24T10:01:31;10.80;99.90
15997;DHT22;8103;51.340;12.326;2022-12-24T10:04:23;10.80;99.90
15997;DHT22;8103;51.340;12.326;2022-12-24T10:23:39;10.60;99.90
15997;DHT22;8103;51.340;12.326;2022-12-24T10:26:12;10.60;99.90
15997;DHT22;8103;51.340;12.326;2022-12-24T10:29:22;10.70;99.90
15997;DHT22;8103;51.340;12.326;2022-12-24T10:35:05;10.70;99.90
15997;DHT22;8103;51.340;12.326;2022-12-24T10:37:49;10.70;99.90
15997;DHT22;8103;51.340;12.326;2022-12-24T10:40:29;10.70;99.90
15997;DHT22;8103;51.340;12.326;2022-12-24T10:43:04;10.80;99.90
15997;DHT22;8103;51.340;12.326;2022-12-24T10:45:41;10.90;99.90
15997;DHT22;8103;51.340;12.326;2022-12-24T10:48:35;11.00;99.90
15997;DHT22;8103;51.340;12.326;2022-12-24T10:52:02;11.10;99.90
15997;DHT22;8103;51.340;12.326;2022-12-24T10:54:26;11.20;99.90
15997;DHT22;8103;51.340;12.326;2022-12-24T10:56:59;11.20;99.90
15997;DHT22;8103;51.340;12.326;2022-12-24T10:59:50;11.20;99.90
15997;DHT22;8103;51.340;12.326;2022-12-24T11:02:35;11.20;99.90
15997;DHT22;8103;51.340;12.326;2022-12-24T11:05:07;11.10;99.90
15997;DHT22;8103;51.340;12.326;2022-12-24T11:08:19;11.10;99.90
15997;DHT22;8103;51.340;12.326;2022-12-24T11:10:55;11.10;99.90
15997;DHT22;8103;51.340;12.326;2022-12-24T11:13:28;11.20;99.90
15997;DHT22;8103;51.340;12.326;2022-12-24T11:16:07;11.30;99.90
15997;DHT22;8103;51.340;12.326;2022-12-24T11:18:53;11.50;99.90
15997;DHT22;8103;51.340;12.326;2022-12-24T11:21:35;11.60;99.90
15997;DHT22;8103;51.340;12.326;2022-12-24T11:26:40;11.90;99.90
15997;DHT22;8103;51.340;12.326;2022-12-24T11:29:21;12.00;99.90
15997;DHT22;8103;51.340;12.326;2022-12-24T11:32:16;12.00;99.90
15997;DHT22;8103;51.340;12.326;2022-12-24T11:34:48;12.00;99.90
15997;DHT22;8103;51.340;12.326;2022-12-24T11:37:21;12.00;99.90
15997;DHT22;8103;51.340;12.326;2022-12-24T11:39:52;12.20;99.90
15997;DHT22;8103;51.340;12.326;2022-12-24T11:42:36;12.40;99.90
15997;DHT22;8103;51.340;12.326;2022-12-24T11:45:13;12.70;99.90
15997;DHT22;8103;51.340;12.326;2022-12-24T11:47:46;12.90;99.90
15997;DHT22;8103;51.340;12.326;2022-12-24T11:52:54;13.10;99.90
15997;DHT22;8103;51.340;12.326;2022-12-24T11:55:39;13.10;99.90
15997;DHT22;8103;51.340;12.326;2022-12-24T12:01:21;12.60;99.90
15997;DHT22;8103;51.340;12.326;2022-12-24T12:04:21;12.40;99.90
15997;DHT22;8103;51.340;12.326;2022-12-24T12:07:05;12.30;99.90
15997;DHT22;8103;51.340;12.326;2022-12-24T12:09:46;12.20;99.90
15997;DHT22;8103;51.340;12.326;2022-12-24T12:12:21;12.20;99.90
15997;DHT22;8103;51.340;12.326;2022-12-24T12:14:56;12.10;99.90
15997;DHT22;8103;51.340;12.326;2022-12-24T12:18:04;12.10;99.90
15997;DHT22;8103;51.340;12.326;2022-12-24T12:20:43;12.10;99.90
15997;DHT22;8103;51.340;12.326;2022-12-24T12:23:34;12.20;99.90
15997;DHT22;8103;51.340;12.326;2022-12-24T12:26:09;12.40;99.90
15997;DHT22;8103;51.340;12.326;2022-12-24T12:28:45;12.40;99.90
15997;DHT22;8103;51.340;12.326;2022-12-24T12:36:53;12.40;99.90
15997;DHT22;8103;51.340;12.326;2022-12-24T12:39:23;12.30;99.90
15997;DHT22;8103;51.340;12.326;2022-12-24T12:42:25;12.30;99.90
15997;DHT22;8103;51.340;12.326;2022-12-24T12:45:27;12.20;99.90
15997;DHT22;8103;51.340;12.326;2022-12-24T12:48:41;12.20;99.90
15997;DHT22;8103;51.340;12.326;2022-12-24T12:59:07;12.30;99.90
15997;DHT22;8103;51.340;12.326;2022-12-24T13:02:02;12.10;99.90
15997;DHT22;8103;51.340;12.326;2022-12-24T13:05:00;12.00;99.90
15997;DHT22;8103;51.340;12.326;2022-12-24T13:08:06;12.00;99.90
15997;DHT22;8103;51.340;12.326;2022-12-24T13:14:09;11.80;99.90
15997;DHT22;8103;51.340;12.326;2022-12-24T13:16:55;11.80;99.90
15997;DHT22;8103;51.340;12.326;2022-12-24T13:25:38;11.30;99.90
15997;DHT22;8103;51.340;12.326;2022-12-24T13:31:22;11.10;99.90
15997;DHT22;8103;51.340;12.326;2022-12-24T13:36:13;11.00;99.90
15997;DHT22;8103;51.340;12.326;2022-12-24T13:47:17;10.90;99.90
15997;DHT22;8103;51.340;12.326;2022-12-24T13:49:51;10.90;99.90
15997;DHT22;8103;51.340;12.326;2022-12-24T13:52:25;10.80;99.90
15997;DHT22;8103;51.340;12.326;2022-12-24T13:57:37;10.80;99.90
15997;DHT22;8103;51.340;12.326;2022-12-24T14:05:47;10.90;99.90
15997;DHT22;8103;51.340;12.326;2022-12-24T14:11:13;10.90;99.90
15997;DHT22;8103;51.340;12.326;2022-12-24T14:16:27;10.90;99.90
15997;DHT22;8103;51.340;12.326;2022-12-24T14:19:15;10.90;99.90
15997;DHT22;8103;51.340;12.326;2022-12-24T14:24:35;10.80;99.90
15997;DHT22;8103;51.340;12.326;2022-12-24T14:27:17;10.70;99.90
15997;DHT22;8103;51.340;12.326;2022-12-24T14:30:04;10.70;99.90
15997;DHT22;8103;51.340;12.326;2022-12-24T14:32:37;10.70;99.90
15997;DHT22;8103;51.340;12.326;2022-12-24T14:35:17;10.80;99.90
15997;DHT22;8103;51.340;12.326;2022-12-24T14:38:04;10.80;99.90
15997;DHT22;8103;51.340;12.326;2022-12-24T14:40:57;10.80;99.90
15997;DHT22;8103;51.340;12.326;2022-12-24T14:46:40;10.80;99.90
15997;DHT22;8103;51.340;12.326;2022-12-24T14:49:52;10.80;99.90
15997;DHT22;8103;51.340;12.326;2022-12-24T14:52:54;10.70;99.90
15997;DHT22;8103;51.340;12.326;2022-12-24T14:55:40;10.70;99.90
15997;DHT22;8103;51.340;12.326;2022-12-24T15:01:00;10.60;99.90
15997;DHT22;8103;51.340;12.326;2022-12-24T15:04:01;10.60;99.90
15997;DHT22;8103;51.340;12.326;2022-12-24T15:06:33;10.50;99.90
15997;DHT22;8103;51.340;12.326;2022-12-24T15:09:03;10.40;99.90
15997;DHT22;8103;51.340;12.326;2022-12-24T15:11:31;10.40;99.90
15997;DHT22;8103;51.340;12.326;2022-12-24T15:13:59;10.30;99.90
15997;DHT22;8103;51.340;12.326;2022-12-24T15:16:30;10.20;99.90
15997;DHT22;8103;51.340;12.326;2022-12-24T15:19:03;10.20;99.90
15997;DHT22;8103;51.340;12.326;2022-12-24T15:21:38;10.10;99.90
15997;DHT22;8103;51.340;12.326;2022-12-24T15:26:51;10.00;99.90
15997;DHT22;8103;51.340;12.326;2022-12-24T15:29:25;9.90;99.90
15997;DHT22;8103;51.340;12.326;2022-12-24T15:31:58;10.00;99.90
15997;DHT22;8103;51.340;12.326;2022-12-24T15:34:38;10.00;99.90
15997;DHT22;8103;51.340;12.326;2022-12-24T15:39:37;10.00;99.90
15997;DHT22;8103;51.340;12.326;2022-12-24T15:42:06;10.00;99.90
15997;DHT22;8103;51.340;12.326;2022-12-24T15:44:55;9.90;99.90
15997;DHT22;8103;51.340;12.326;2022-12-24T15:47:56;9.90;99.90
15997;DHT22;8103;51.340;12.326;2022-12-24T15:50:35;9.80;99.90
15997;DHT22;8103;51.340;12.326;2022-12-24T15:53:12;9.70;99.90
15997;DHT22;8103;51.340;12.326;2022-12-24T15:58:33;9.60;99.90
15997;DHT22;8103;51.340;12.326;2022-12-24T16:01:25;9.50;99.90
15997;DHT22;8103;51.340;12.326;2022-12-24T16:03:55;9.50;99.90
15997;DHT22;8103;51.340;12.326;2022-12-24T16:06:23;9.50;99.90
15997;DHT22;8103;51.340;12.326;2022-12-24T16:08:50;9.40;99.90
15997;DHT22;8103;51.340;12.326;2022-12-24T16:11:34;9.50;99.90
15997;DHT22;8103;51.340;12.326;2022-12-24T16:16:38;9.40;99.90
15997;DHT22;8103;51.340;12.326;2022-12-24T16:19:15;9.40;99.90
15997;DHT22;8103;51.340;12.326;2022-12-24T16:21:55;9.30;99.90
15997;DHT22;8103;51.340;12.326;2022-12-24T16:24:28;9.30;99.90
15997;DHT22;8103;51.340;12.326;2022-12-24T16:26:57;9.20;99.90
15997;DHT22;8103;51.340;12.326;2022-12-24T16:29:23;9.20;99.90
15997;DHT22;8103;51.340;12.326;2022-12-24T16:31:55;9.20;99.90
15997;DHT22;8103;51.340;12.326;2022-12-24T16:34:29;9.10;99.90
15997;DHT22;8103;51.340;12.326;2022-12-24T16:36:58;9.10;99.90
15997;DHT22;8103;51.340;12.326;2022-12-24T16:39:32;9.10;99.90
15997;DHT22;8103;51.340;12.326;2022-12-24T16:42:02;9.00;99.90
15997;DHT22;8103;51.340;12.326;2022-12-24T16:44:51;9.00;99.90
15997;DHT22;8103;51.340;12.326;2022-12-24T16:47:21;8.90;99.90
15997;DHT22;8103;51.340;12.326;2022-12-24T16:49:52;8.90;99.90
15997;DHT22;8103;51.340;12.326;2022-12-24T16:52:23;8.80;99.90
15997;DHT22;8103;51.340;12.326;2022-12-24T16:54:54;8.80;99.90
15997;DHT22;8103;51.340;12.326;2022-12-24T16:57:23;8.80;99.90
15997;DHT22;8103;51.340;12.326;2022-12-24T16:59:50;8.70;99.90
15997;DHT22;8103;51.340;12.326;2022-12-24T17:02:22;8.70;99.90
15997;DHT22;8103;51.340;12.326;2022-12-24T17:04:51;8.70;99.90
15997;DHT22;8103;51.340;12.326;2022-12-24T17:07:19;8.70;99.90
15997;DHT22;8103;51.340;12.326;2022-12-24T17:09:47;8.70;99.90
15997;DHT22;8103;51.340;12.326;2022-12-24T17:12:14;8.60;99.90
15997;DHT22;8103;51.340;12.326;2022-12-24T17:14:41;8.60;99.90
15997;DHT22;8103;51.340;12.326;2022-12-24T17:17:18;8.60;99.90
15997;DHT22;8103;51.340;12.326;2022-12-24T17:19:49;8.50;99.90
15997;DHT22;8103;51.340;12.326;2022-12-24T17:22:17;8.50;99.90
15997;DHT22;8103;51.340;12.326;2022-12-24T17:24:45;8.50;99.90
15997;DHT22;8103;51.340;12.326;2022-12-24T17:27:13;8.40;99.90
15997;DHT22;8103;51.340;12.326;2022-12-24T17:29:40;8.40;99.90
15997;DHT22;8103;51.340;12.326;2022-12-24T17:32:07;8.40;99.90
15997;DHT22;8103;51.340;12.326;2022-12-24T17:34:34;8.40;99.90
15997;DHT22;8103;51.340;12.326;2022-12-24T17:37:01;8.30;99.90
15997;DHT22;8103;51.340;12.326;2022-12-24T17:39:27;8.30;99.90
15997;DHT22;8103;51.340;12.326;2022-12-24T17:41:54;8.30;99.90
15997;DHT22;8103;51.340;12.326;2022-12-24T17:44:22;8.30;99.90
15997;DHT22;8103;51.340;12.326;2022-12-24T17:46:49;8.30;99.90
15997;DHT22;8103;51.340;12.326;2022-12-24T17:53:22;8.30;99.90
15997;DHT22;8103;51.340;12.326;2022-12-24T17:55:50;8.40;99.90
15997;DHT22;8103;51.340;12.326;2022-12-24T18:02:24;8.40;99.90
15997;DHT22;8103;51.340;12.326;2022-12-24T18:04:51;8.40;99.90
15997;DHT22;8103;51.340;12.326;2022-12-24T18:07:18;8.40;99.90
15997;DHT22;8103;51.340;12.326;2022-12-24T18:09:45;8.40;99.90
15997;DHT22;8103;51.340;12.326;2022-12-24T18:12:12;8.30;99.90
15997;DHT22;8103;51.340;12.326;2022-12-24T18:14:38;8.30;99.90
15997;DHT22;8103;51.340;12.326;2022-12-24T18:17:05;8.30;99.90
15997;DHT22;8103;51.340;12.326;2022-12-24T18:19:33;8.30;99.90
15997;DHT22;8103;51.340;12.326;2022-12-24T18:22:00;8.20;99.90
15997;DHT22;8103;51.340;12.326;2022-12-24T18:24:27;8.20;99.90
15997;DHT22;8103;51.340;12.326;2022-12-24T18:26:54;8.20;99.90
15997;DHT22;8103;51.340;12.326;2022-12-24T18:29:22;8.20;99.90
15997;DHT22;8103;51.340;12.326;2022-12-24T18:31:49;8.20;99.90
15997;DHT22;8103;51.340;12.326;2022-12-24T18:38:22;8.10;99.90
15997;DHT22;8103;51.340;12.326;2022-12-24T18:43:16;8.10;99.90
15997;DHT22;8103;51.340;12.326;2022-12-24T18:45:44;8.10;99.90
15997;DHT22;8103;51.340;12.326;2022-12-24T18:48:12;8.10;99.90
15997;DHT22;8103;51.340;12.326;2022-12-24T18:50:39;8.10;99.90